• Join FlightAware (Why Join?)
  • Login
  • US Flag 
06:38PM EDT


 

Airport Tracker/Info


-or-


 

Live Flight TrackerFlight Track Log ✈ EMD21 ✈ 08-Jun-2013 ✈ KFSM - KFTW

Flight Track Log - Related Links

Times and Time Zones

All times are in EDT time to prevent confusion due to time zone crossing. See the EMD21 flight status page for this flight to view local times or setup timezone preferences in your user account.

Time Position Orientation Groundspeed Altitude Reporting Facility
EDT Latitude Longitude Course Direction KTS MPH feet Rate Location/Type
05:38PM 35.0971 -94.6502 224° Southwest  Level FlightAware Approximate
05:39PM 35.0554 -94.6946 219° Southwest  Level FlightAware Approximate
05:40PM 35.0167 -94.7429 227° Southwest  Level FlightAware Approximate
05:40PM 35.0897 -94.6328 225° Southwest 146 168 12,000  Level Fort Worth Center
05:41PM 34.9786 -94.7919 227° Southwest  Level FlightAware Approximate
05:41PM 35.0553 -94.6794 228° Southwest 163 188 12,000  Level Fort Worth Center
05:42PM 34.9405 -94.8408 226° Southwest  Level FlightAware Approximate
05:42PM 35.0167 -94.7264 225° Southwest 203 234 12,000  Level Fort Worth Center
05:43PM 34.8986 -94.8848 219° Southwest  Level FlightAware Approximate
05:43PM 34.9761 -94.7783 226° Southwest 214 246 12,000  Level Fort Worth Center
05:44PM 34.8581 -94.9307 225° Southwest  Level FlightAware Approximate
05:44PM 34.9333 -94.8353 228° Southwest 214 246 12,000  Level Fort Worth Center
05:45PM 34.8190 -94.9784 225° Southwest  Level FlightAware Approximate
05:45PM 34.8906 -94.8872 225° Southwest 219 252 12,000  Level Fort Worth Center
05:46PM 34.8500 -94.9392 226° Southwest 219 252 12,000  Level Fort Worth Center
05:47PM 34.8133 -94.9831 225° Southwest 219 252 12,000  Level Fort Worth Center
05:48PM 34.7725 -95.0347 226° Southwest 214 246 12,000  Level Fort Worth Center
05:49PM 34.7278 -95.0917 226° Southwest 214 246 12,000  Level Fort Worth Center
05:50PM 34.6869 -95.1408 225° Southwest 214 246 12,000  Level Fort Worth Center
05:51PM 34.6461 -95.1922 226° Southwest 219 252 12,000  Level Fort Worth Center
05:52PM 34.6053 -95.2414 225° Southwest 219 252 12,000  Level Fort Worth Center
05:53PM 34.5603 -95.2953 225° Southwest 226 260 12,000  Level Fort Worth Center
05:54PM 34.5256 -95.3342 223° Southwest 215 247 12,000  Level Fort Worth Center
05:55PM 34.4847 -95.3853 226° Southwest 214 246 12,000  Level Fort Worth Center
05:56PM 34.4356 -95.4444 225° Southwest 224 258 12,000  Level Fort Worth Center
05:57PM 34.4008 -95.4906 228° Southwest 212 244 12,000  Level Fort Worth Center
05:58PM 34.3597 -95.5392 224° Southwest 212 244 12,000  Level Fort Worth Center
05:59PM 34.3083 -95.5983 224° Southwest 218 251 12,000 -60 Level Fort Worth Center
06:00PM 34.2675 -95.6519 227° Southwest 218 251 11,900 -60 Descending Fort Worth Center
06:01PM 34.2325 -95.6978 227° Southwest 218 251 11,900 -120 Level Fort Worth Center
06:02PM 34.1875 -95.7489 223° Southwest 218 251 11,700 -300 Descending Fort Worth Center
06:03PM 34.1483 -95.7972 226° Southwest 224 258 11,400 -420 Descending Fort Worth Center
06:04PM 34.1053 -95.8483 225° Southwest 224 258 10,900 -600 Descending Fort Worth Center
06:05PM 34.0683 -95.8967 227° Southwest 224 258 10,300 -480 Descending Fort Worth Center
06:06PM 34.0292 -95.9475 227° Southwest 224 258 10,000 -180 Descending Fort Worth Center
06:07PM 33.9858 -95.9956 223° Southwest 219 252 10,000  Level Fort Worth Center
06:08PM 33.9425 -96.0439 223° Southwest 219 252 10,000 -300 Level Fort Worth Center
06:09PM 33.9036 -96.0972 229° Southwest 214 246 9,500 -480 Descending Fort Worth Center
06:10PM 33.8581 -96.1478 223° Southwest 219 252 9,100 -780 Descending Fort Worth Center
06:11PM 33.8086 -96.2061 224° Southwest 225 259 8,000 -600 Descending Fort Worth Center
06:12PM 33.7694 -96.2567 227° Southwest 225 259 8,000 -240 Level Fort Worth Center
06:13PM 33.7200 -96.3122 223° Southwest 224 258 7,600 -420 Descending Fort Worth Center
06:14PM 33.6806 -96.3600 225° Southwest 229 264 7,200 -480 Descending Fort Worth Center
06:15PM 33.6331 -96.4181 226° Southwest 224 258 6,700 -600 Descending Fort Worth Center
06:16PM 33.5917 -96.4683 225° Southwest 224 258 6,100 -360 Descending Fort Worth Center
06:17PM 33.5442 -96.5236 224° Southwest 224 258 6,000 -60 Descending Fort Worth Center
06:18PM 33.5047 -96.5689 224° Southwest 224 258 6,000  Level Fort Worth Center
06:19PM 33.4592 -96.6142 220° Southwest 218 251 6,000  Level Fort Worth Center
06:20PM 33.4178 -96.6719 229° Southwest 218 251 6,000  Level Fort Worth Center
06:21PM 33.3806 -96.7169 225° Southwest 218 251 6,000  Level Fort Worth Center
06:22PM 33.3347 -96.7694 224° Southwest 211 243 6,000  Level Fort Worth Center
06:23PM 33.2975 -96.8119 224° Southwest 211 243 6,000  Level Fort Worth Center
06:24PM 33.2517 -96.8644 224° Southwest 211 243 6,000  Level Fort Worth Center
06:25PM 33.2103 -96.9144 225° Southwest 216 249 6,000  Level Fort Worth Center
06:26PM 33.1667 -96.9642 224° Southwest 211 243 6,000  Level Fort Worth Center
06:27PM 33.1167 -96.9967 209° Southwest 211 243 6,000  Level Fort Worth Center
06:27PM 33.1000 -97.0000 190° South 204 235 6,000  Level Dallas / Fort Worth TRACON
06:28PM 33.0500 -97.0167 196° South 207 238 6,000  Level Dallas / Fort Worth TRACON
06:29PM 33.0333 -97.0833 253° West 216 249 6,000  Level Dallas / Fort Worth TRACON
06:30PM 33.0147 -97.1311 245° Southwest 199 229 6,000 -780 Level Fort Worth Center
06:31PM 32.9856 -97.1981 243° Southwest 212 244 4,700 -1,320 Descending Fort Worth Center
06:32PM 32.9461 -97.2600 233° Southwest 223 257 3,400 -900 Descending Fort Worth Center
06:34PM 32.8833 -97.3667 235° Southwest 137 158 2,000 -720 Descending Dallas / Fort Worth TRACON
06:35PM 32.8500 -97.3667 180° South 116 133 1,200 -840 Descending Dallas / Fort Worth TRACON
06:37PM 32.8167 -97.3500 220° Southwest  Level FlightAware Approximate
06:44PM 32.8198 -97.3624 220° Southwest  Level Estimated